No data was retrieved for https://query.yahooapis.com/v1/public/yql?q=select+%2A+from+weather.forecast+where+woeid%3D731260&format=xml&u=c



METAR rapporten vliegvelden

   
EHAM - Amsterdam
Gewijzigd: 15-09-2019 08:25
Helder  
Helder  
   Wind: ZW 14.8 km/h
Wind: ZW 14.8 km/h
Temperatuur: 14°C
Dauwpunt: 12°C
Vochtigheid: 88%
Barometer: 1023 hPa
Zicht: meer dan 10 km
Bewolking: Helder
EHAM 150625Z 22008KT CAVOK 14/12 Q1023 NOSIG
EHBK - Maastricht
Gewijzigd: 15-09-2019 08:25
Helder  
Helder  
   Wind: ZZW 13 km/h
Wind: ZZW 13 km/h
Temperatuur: 12°C
Dauwpunt: 9°C
Vochtigheid: 82%
Barometer: 1024 hPa
Bewolking: Helder
Zicht: meer dan 10 km
Bewolking: Helder
EHBK 150625Z AUTO 21007KT 9999 NCD 12/09 Q1024 NOSIG
ELLX - Luxemburg
Gewijzigd: 15-09-2019 08:20
Helder  
Helder  
   Wind: NNO 5.6 km/h
Wind: NNO 5.6 km/h
Temperatuur: 13°C
Dauwpunt: 10°C
Vochtigheid: 82%
Barometer: 1026 hPa
Zicht: meer dan 10 km
Bewolking: Helder
ELLX 150620Z 03003KT 350V050 CAVOK 13/10 Q1026 NOSIG
EDDL - Dusseldorf
Gewijzigd: 15-09-2019 08:20
Helder  
Helder  
   Wind: ZZO 9.3 km/h
Wind: ZZO 9.3 km/h
Temperatuur: 12°C
Dauwpunt: 9°C
Vochtigheid: 82%
Barometer: 1024 hPa
Zicht: meer dan 10 km
Bewolking: Helder
EDDL 150620Z 16005KT CAVOK 12/09 Q1024 NOSIG
  

Script ontwikkeld door  Saratoga-weather.org Aangepast voor de template door  Weerstation Leuven